Flight Track Log - Related Links

Times and Time Zones

All times are in EDT time to prevent confusion due to time zone crossing. See the N2886Q flight status page for this flight to view local times or setup timezone preferences in your user account.

Time Position Orientation Groundspeed Altitude Reporting Facility
EDT Latitude Longitude Course Direction KTS MPH feet Rate Location/Type
Sat 02:27:45 PM 40.8039 -82.5358 226° Southwest 51 59 2,200  Level Indianapolis Center
Sat 02:28:46 PM 40.7878 -82.5569 225° Southwest 77 89 2,700 488 Climbing Indianapolis Center
Sat 02:29:48 PM 40.7736 -82.5789 230° Southwest 78 90 3,200 581 Climbing Indianapolis Center
Sat 02:30:50 PM 40.7611 -82.6022 235° Southwest 77 89 3,900 439 Climbing Indianapolis Center
Sat 02:31:51 PM 40.7464 -82.6261 231° Southwest 83 96 4,100 98 Climbing Indianapolis Center
Sat 02:32:53 PM 40.7292 -82.6544 231° Southwest 95 109 4,100  Level Indianapolis Center
Sat 02:33:00 PM 40.7198 -82.6416 226° Southwest  Level FlightAware Approximate
Sat 02:33:55 PM 40.7133 -82.6828 234° Southwest 95 109 4,100  Level Indianapolis Center
Sat 02:34:56 PM 40.6942 -82.7058 222° Southwest 94 108 4,200 146 Climbing Indianapolis Center
Sat 02:35:58 PM 40.6733 -82.7292 220° Southwest 96 110 4,400 -48 Climbing Indianapolis Center
Sat 02:37:00 PM 40.6531 -82.7564 226° Southwest 101 116 4,100 -195 Descending Indianapolis Center
Sat 02:38:01 PM 40.6331 -82.7889 231° Southwest 98 113 4,000 49 Descending Indianapolis Center
Sat 02:39:03 PM 40.6167 -82.8164 232° Southwest 95 109 4,200 48 Climbing Indianapolis Center
Sat 02:40:05 PM 40.5994 -82.8444 231° Southwest 98 113 4,100 -98 Descending Indianapolis Center
Sat 02:41:06 PM 40.5794 -82.8664 220° Southwest 93 107 4,000  Descending Indianapolis Center
Sat 02:42:08 PM 40.5589 -82.8894 220° Southwest 95 109 4,100 48 Climbing Indianapolis Center
Sat 02:43:10 PM 40.5400 -82.9167 228° Southwest 98 113 4,100  Level Indianapolis Center
Sat 02:44:11 PM 40.5217 -82.9408 225° Southwest 94 108 4,100  Level Indianapolis Center
Sat 02:45:13 PM 40.5031 -82.9675 227° Southwest 96 110 4,100 -48 Level Indianapolis Center
Sat 02:46:15 PM 40.4858 -82.9978 233° Southwest 96 110 4,000  Descending Indianapolis Center
Sat 02:47:17 PM 40.4706 -83.0292 237° Southwest 99 114 4,100 48 Climbing Indianapolis Center
Sat 02:48:19 PM 40.4531 -83.0558 229° Southwest 98 113 4,100 55 Level Indianapolis Center
Sat 02:49:06 PM 40.4367 -83.0833 232° Southwest 97 112 4,200 59 Climbing Indianapolis Center
Sat 02:50:01 PM 40.4125 -83.0994 207° Southwest 106 122 4,200  Level Indianapolis Center
Sat 02:50:22 PM 40.4069 -83.1050 217° Southwest 99 114 4,200  Level Indianapolis Center
Sat 02:51:02 PM 40.3903 -83.1189 212° Southwest 100 115 4,200  Level Indianapolis Center
Sat 02:51:24 PM 40.3875 -83.1219 220° Southwest 99 114 4,200 -90 Level Indianapolis Center
Sat 02:52:09 PM 40.3714 -83.1467 229° Southwest 95 109 4,100 -194 Descending Indianapolis Center
Sat 02:52:26 PM 40.3661 -83.1511 213° Southwest 97 112 4,000 -98 Descending Indianapolis Center
Sat 02:53:10 PM 40.3492 -83.1686 218° Southwest 92 106 4,000 97 Level Indianapolis Center
Sat 02:53:28 PM 40.3461 -83.1717 217° Southwest 93 107 4,100  Climbing Indianapolis Center
Sat 02:54:11 PM 40.3256 -83.1769 191° South 91 105 4,000 -98 Descending Indianapolis Center
Sat 02:54:29 PM 40.3186 -83.1739 161° South 93 107 4,000 111 Level Indianapolis Center
Sat 02:55:05 PM 40.3092 -83.2022 246° West 98 113 4,100 124 Climbing Indianapolis Center
Sat 02:56:06 PM 40.2925 -83.2278 229° Southwest 95 109 4,200 60 Climbing Indianapolis Center
Sat 02:56:45 PM 40.2822 -83.2444 231° Southwest 101 116 4,200 -98 Level Indianapolis Center
Sat 02:57:07 PM 40.2739 -83.2556 225° Southwest 98 113 4,100 -194 Descending Indianapolis Center
Sat 02:57:47 PM 40.2633 -83.2711 228° Southwest 98 113 4,000 -98 Descending Indianapolis Center
Sat 02:58:08 PM 40.2553 -83.2833 229° Southwest 99 114 4,000  Level Indianapolis Center
Sat 02:58:49 PM 40.2467 -83.2992 235° Southwest 98 113 4,000 98 Level Indianapolis Center
Sat 02:59:09 PM 40.2367 -83.3083 215° Southwest 93 107 4,100 97 Climbing Indianapolis Center
Sat 02:59:51 PM 40.2272 -83.3242 232° Southwest 97 112 4,100  Level Indianapolis Center
Sat 03:00:10 PM 40.2203 -83.3339 227° Southwest 93 107 4,100  Level Indianapolis Center
Sat 03:00:53 PM 40.2086 -83.3478 222° Southwest 95 109 4,100  Level Indianapolis Center
Sat 03:01:11 PM 40.2017 -83.3589 231° Southwest 96 110 4,100 97 Level Indianapolis Center
Sat 03:01:55 PM 40.1908 -83.3753 229° Southwest 96 110 4,200 98 Climbing Indianapolis Center
Sat 03:02:12 PM 40.1850 -83.3869 237° Southwest 101 116 4,200  Level Indianapolis Center
Sat 03:02:57 PM 40.1736 -83.4050 230° Southwest 99 114 4,200 -57 Level Indianapolis Center
Sat 03:03:58 PM 40.1561 -83.4347 232° Southwest 101 116 4,100  Descending Indianapolis Center
Sat 03:05:00 PM 40.1411 -83.4733 243° Southwest 102 117 4,200 48 Climbing Indianapolis Center
Sat 03:06:02 PM 40.1253 -83.5025 235° Southwest 99 114 4,200 -97 Level Indianapolis Center
Sat 03:07:04 PM 40.1092 -83.5344 237° Southwest 102 117 4,000 -48 Descending Indianapolis Center
Sat 03:08:06 PM 40.0953 -83.5667 241° Southwest 102 117 4,100 45 Climbing Indianapolis Center
Sat 03:09:18 PM 40.0772 -83.6056 239° Southwest 95 109 4,100 48 Level Indianapolis Center
Sat 03:10:10 PM 40.0686 -83.6267 242° Southwest 96 110 4,200  Climbing Indianapolis Center
Sat 03:11:12 PM 40.0578 -83.6594 247° West 96 110 4,100 -48 Descending Indianapolis Center
Sat 03:12:14 PM 40.0414 -83.6939 238° Southwest 96 110 4,100  Level Indianapolis Center
Sat 03:13:16 PM 40.0247 -83.7211 231° Southwest 95 109 4,100 -47 Level Indianapolis Center
Sat 03:14:23 PM 40.0014 -83.7514 225° Southwest 97 112 4,000 49 Descending Indianapolis Center
Sat 03:15:18 PM 39.9869 -83.7767 233° Southwest 96 110 4,200 98 Climbing Indianapolis Center
Sat 03:16:25 PM 39.9678 -83.8069 230° Southwest 99 114 4,200 -95 Level Indianapolis Center
Sat 03:17:24 PM 39.9539 -83.8303 232° Southwest 99 114 4,000 -298 Descending Indianapolis Center
Sat 03:18:26 PM 39.9386 -83.8603 236° Southwest 99 114 3,600 -390 Descending Indianapolis Center
Sat 03:19:27 PM 39.9228 -83.8967 240° Southwest 99 114 3,200 -195 Descending Indianapolis Center
Sat 03:20:29 PM 39.9097 -83.9278 241° Southwest 98 113 3,200 -52 Level Indianapolis Center
Sat 03:21:23 PM 39.8997 -83.9589 247° West 97 112 3,100 -104 Descending Indianapolis Center
Sat 03:22:24 PM 39.8800 -83.9700 203° Southwest 85 98 3,000 -45 Descending Indianapolis Center
Sat 03:23:35 PM 39.8514 -83.9678 177° South 94 108 3,000  Level Indianapolis Center
Sat 03:24:31 PM 39.8308 -83.9825 209° Southwest 101 116 3,000 49 Level Indianapolis Center
Sat 03:25:38 PM 39.8236 -84.0133 253° West 95 109 3,100 49 Climbing Indianapolis Center
Sat 03:26:33 PM 39.8136 -84.0456 248° West 93 107 3,100  Level Indianapolis Center
Sat 03:27:34 PM 39.8025 -84.0794 247° West 98 113 3,100  Level Indianapolis Center
Sat 03:28:44 PM 39.7942 -84.1164 254° West 97 112 3,100 -45 Level Indianapolis Center
Sat 03:29:46 PM 39.7761 -84.1386 223° Southwest 92 106 3,000 -106 Descending Indianapolis Center
Sat 03:30:37 PM 39.7533 -84.1464 195° South 94 108 2,900 -54 Descending Indianapolis Center
Sat 03:31:37 PM 39.7281 -84.1483 183° South 90 104 2,900  Level Indianapolis Center
Sat 03:32:38 PM 39.7058 -84.1644 209° Southwest 90 104 2,900 44 Level Indianapolis Center
Sat 03:33:53 PM 39.6825 -84.1772 203° Southwest 87 100 3,000 80 Climbing Indianapolis Center
Sat 03:35:00 PM 39.6526 -84.1890 197° South  Level FlightAware Approximate
Sat 03:42:00 PM 39.5833 -84.2167 197° South  Level FlightAware Approximate
Sat 03:43:00 PM 39.5890 -84.2249 197° South  Level Estimated

Login

Don't have an account? Register now (free) for customized features, flight alerts, and more!